sensor_id;sensor_type;location;lat;lon;timestamp;P1;durP1;ratioP1;P2;durP2;ratioP2
59607;SDS011;45426;44.726;10.390;2022-12-07T00:01:11;27.67;;;13.15;;
59607;SDS011;45426;44.726;10.390;2022-12-07T00:03:39;29.85;;;14.35;;
59607;SDS011;45426;44.726;10.390;2022-12-07T00:06:05;27.95;;;13.38;;
59607;SDS011;45426;44.726;10.390;2022-12-07T00:08:33;27.23;;;13.85;;
59607;SDS011;45426;44.726;10.390;2022-12-07T00:11:01;25.23;;;12.57;;
59607;SDS011;45426;44.726;10.390;2022-12-07T00:13:29;25.95;;;12.77;;
59607;SDS011;45426;44.726;10.390;2022-12-07T00:15:55;21.50;;;11.63;;
59607;SDS011;45426;44.726;10.390;2022-12-07T00:18:20;22.73;;;10.63;;
59607;SDS011;45426;44.726;10.390;2022-12-07T00:20:46;20.95;;;10.73;;
59607;SDS011;45426;44.726;10.390;2022-12-07T00:23:11;22.63;;;11.38;;
59607;SDS011;45426;44.726;10.390;2022-12-07T00:25:37;22.65;;;11.35;;
59607;SDS011;45426;44.726;10.390;2022-12-07T00:28:02;24.30;;;11.57;;
59607;SDS011;45426;44.726;10.390;2022-12-07T00:30:28;21.20;;;11.20;;
59607;SDS011;45426;44.726;10.390;2022-12-07T00:32:53;19.48;;;10.35;;
59607;SDS011;45426;44.726;10.390;2022-12-07T00:35:18;23.40;;;11.45;;
59607;SDS011;45426;44.726;10.390;2022-12-07T00:37:44;23.25;;;11.02;;
59607;SDS011;45426;44.726;10.390;2022-12-07T00:40:09;25.15;;;11.75;;
59607;SDS011;45426;44.726;10.390;2022-12-07T00:42:35;22.40;;;10.73;;
59607;SDS011;45426;44.726;10.390;2022-12-07T00:45:00;20.48;;;10.98;;
59607;SDS011;45426;44.726;10.390;2022-12-07T00:47:26;22.73;;;10.90;;
59607;SDS011;45426;44.726;10.390;2022-12-07T00:49:51;21.63;;;10.77;;
59607;SDS011;45426;44.726;10.390;2022-12-07T00:52:16;23.90;;;11.00;;
59607;SDS011;45426;44.726;10.390;2022-12-07T00:54:42;22.95;;;10.85;;
59607;SDS011;45426;44.726;10.390;2022-12-07T00:57:07;21.23;;;10.32;;
59607;SDS011;45426;44.726;10.390;2022-12-07T00:59:33;20.13;;;9.63;;
59607;SDS011;45426;44.726;10.390;2022-12-07T01:01:58;20.20;;;10.70;;
59607;SDS011;45426;44.726;10.390;2022-12-07T01:04:24;18.45;;;9.88;;
59607;SDS011;45426;44.726;10.390;2022-12-07T01:06:49;18.27;;;9.23;;
59607;SDS011;45426;44.726;10.390;2022-12-07T01:09:14;18.35;;;8.90;;
59607;SDS011;45426;44.726;10.390;2022-12-07T01:11:40;18.38;;;9.13;;
59607;SDS011;45426;44.726;10.390;2022-12-07T01:14:05;18.08;;;9.75;;
59607;SDS011;45426;44.726;10.390;2022-12-07T01:16:31;18.08;;;8.82;;
59607;SDS011;45426;44.726;10.390;2022-12-07T01:18:58;17.48;;;8.80;;
59607;SDS011;45426;44.726;10.390;2022-12-07T01:21:25;16.75;;;8.07;;
59607;SDS011;45426;44.726;10.390;2022-12-07T01:23:57;20.23;;;9.32;;
59607;SDS011;45426;44.726;10.390;2022-12-07T01:26:24;18.88;;;8.68;;
59607;SDS011;45426;44.726;10.390;2022-12-07T01:28:50;17.75;;;9.10;;
59607;SDS011;45426;44.726;10.390;2022-12-07T01:31:17;17.80;;;8.90;;
59607;SDS011;45426;44.726;10.390;2022-12-07T01:33:46;18.10;;;8.30;;
59607;SDS011;45426;44.726;10.390;2022-12-07T01:38:46;17.00;;;8.00;;
59607;SDS011;45426;44.726;10.390;2022-12-07T01:41:13;19.45;;;9.13;;
59607;SDS011;45426;44.726;10.390;2022-12-07T01:46:37;16.20;;;7.57;;
59607;SDS011;45426;44.726;10.390;2022-12-07T01:49:03;16.10;;;8.25;;
59607;SDS011;45426;44.726;10.390;2022-12-07T01:51:31;15.73;;;7.65;;
59607;SDS011;45426;44.726;10.390;2022-12-07T01:53:57;15.52;;;7.88;;
59607;SDS011;45426;44.726;10.390;2022-12-07T01:56:24;15.45;;;7.90;;
59607;SDS011;45426;44.726;10.390;2022-12-07T01:58:52;15.13;;;7.70;;
59607;SDS011;45426;44.726;10.390;2022-12-07T02:01:20;16.35;;;8.02;;
59607;SDS011;45426;44.726;10.390;2022-12-07T02:03:46;15.52;;;7.43;;
59607;SDS011;45426;44.726;10.390;2022-12-07T02:06:13;13.48;;;7.05;;
59607;SDS011;45426;44.726;10.390;2022-12-07T02:08:43;15.98;;;7.90;;
59607;SDS011;45426;44.726;10.390;2022-12-07T02:11:08;14.65;;;7.57;;
59607;SDS011;45426;44.726;10.390;2022-12-07T02:13:35;14.73;;;7.40;;
59607;SDS011;45426;44.726;10.390;2022-12-07T02:18:40;15.73;;;7.78;;
59607;SDS011;45426;44.726;10.390;2022-12-07T02:21:33;14.82;;;7.30;;
59607;SDS011;45426;44.726;10.390;2022-12-07T02:30:12;13.00;;;6.43;;
59607;SDS011;45426;44.726;10.390;2022-12-07T02:33:03;13.98;;;6.63;;
59607;SDS011;45426;44.726;10.390;2022-12-07T02:38:22;14.35;;;6.90;;
59607;SDS011;45426;44.726;10.390;2022-12-07T02:41:16;11.70;;;5.90;;
59607;SDS011;45426;44.726;10.390;2022-12-07T02:43:54;12.95;;;5.93;;
59607;SDS011;45426;44.726;10.390;2022-12-07T02:46:29;13.63;;;6.00;;
59607;SDS011;45426;44.726;10.390;2022-12-07T02:48:58;14.32;;;7.22;;
59607;SDS011;45426;44.726;10.390;2022-12-07T02:51:25;12.55;;;6.45;;
59607;SDS011;45426;44.726;10.390;2022-12-07T02:53:54;14.40;;;7.20;;
59607;SDS011;45426;44.726;10.390;2022-12-07T02:56:31;14.23;;;7.35;;
59607;SDS011;45426;44.726;10.390;2022-12-07T03:15:26;15.43;;;7.15;;
59607;SDS011;45426;44.726;10.390;2022-12-07T03:18:13;15.68;;;7.07;;
59607;SDS011;45426;44.726;10.390;2022-12-07T03:20:41;16.95;;;7.95;;
59607;SDS011;45426;44.726;10.390;2022-12-07T03:23:09;15.43;;;7.45;;
59607;SDS011;45426;44.726;10.390;2022-12-07T03:25:40;18.20;;;7.57;;
59607;SDS011;45426;44.726;10.390;2022-12-07T03:28:11;18.50;;;8.17;;
59607;SDS011;45426;44.726;10.390;2022-12-07T03:33:28;16.55;;;7.68;;
59607;SDS011;45426;44.726;10.390;2022-12-07T03:39:03;18.38;;;7.93;;
59607;SDS011;45426;44.726;10.390;2022-12-07T03:41:37;18.90;;;8.02;;
59607;SDS011;45426;44.726;10.390;2022-12-07T03:44:04;17.52;;;8.45;;
59607;SDS011;45426;44.726;10.390;2022-12-07T03:46:44;18.65;;;8.27;;
59607;SDS011;45426;44.726;10.390;2022-12-07T03:49:26;18.85;;;9.00;;
59607;SDS011;45426;44.726;10.390;2022-12-07T03:51:57;19.48;;;9.07;;
59607;SDS011;45426;44.726;10.390;2022-12-07T03:54:36;21.45;;;9.05;;
59607;SDS011;45426;44.726;10.390;2022-12-07T03:57:06;17.67;;;8.38;;
59607;SDS011;45426;44.726;10.390;2022-12-07T03:59:33;16.60;;;8.52;;
59607;SDS011;45426;44.726;10.390;2022-12-07T04:02:03;16.67;;;7.95;;
59607;SDS011;45426;44.726;10.390;2022-12-07T04:04:30;17.80;;;8.95;;
59607;SDS011;45426;44.726;10.390;2022-12-07T04:06:56;19.38;;;8.95;;
59607;SDS011;45426;44.726;10.390;2022-12-07T04:09:21;17.10;;;8.57;;
59607;SDS011;45426;44.726;10.390;2022-12-07T04:11:47;18.60;;;8.27;;
59607;SDS011;45426;44.726;10.390;2022-12-07T04:14:12;18.23;;;8.38;;
59607;SDS011;45426;44.726;10.390;2022-12-07T04:16:44;18.48;;;8.00;;
59607;SDS011;45426;44.726;10.390;2022-12-07T04:19:11;16.75;;;8.20;;
59607;SDS011;45426;44.726;10.390;2022-12-07T04:21:37;16.10;;;6.85;;
59607;SDS011;45426;44.726;10.390;2022-12-07T04:24:02;15.40;;;7.35;;
59607;SDS011;45426;44.726;10.390;2022-12-07T04:26:28;18.85;;;8.35;;
59607;SDS011;45426;44.726;10.390;2022-12-07T04:28:54;18.73;;;8.05;;
59607;SDS011;45426;44.726;10.390;2022-12-07T04:31:19;15.15;;;7.50;;
59607;SDS011;45426;44.726;10.390;2022-12-07T04:33:45;18.13;;;8.60;;
59607;SDS011;45426;44.726;10.390;2022-12-07T04:36:10;15.63;;;7.75;;
59607;SDS011;45426;44.726;10.390;2022-12-07T04:38:35;16.33;;;7.45;;
59607;SDS011;45426;44.726;10.390;2022-12-07T04:41:05;17.75;;;7.18;;
59607;SDS011;45426;44.726;10.390;2022-12-07T04:43:31;17.30;;;7.13;;
59607;SDS011;45426;44.726;10.390;2022-12-07T04:45:56;17.13;;;7.47;;
59607;SDS011;45426;44.726;10.390;2022-12-07T04:48:22;15.38;;;6.65;;
59607;SDS011;45426;44.726;10.390;2022-12-07T04:50:48;14.38;;;6.75;;
59607;SDS011;45426;44.726;10.390;2022-12-07T04:53:14;15.70;;;7.10;;
59607;SDS011;45426;44.726;10.390;2022-12-07T04:55:40;16.85;;;7.45;;
59607;SDS011;45426;44.726;10.390;2022-12-07T04:58:06;13.63;;;6.95;;
59607;SDS011;45426;44.726;10.390;2022-12-07T05:00:31;16.27;;;7.20;;
59607;SDS011;45426;44.726;10.390;2022-12-07T05:02:57;15.95;;;7.25;;
59607;SDS011;45426;44.726;10.390;2022-12-07T05:05:22;16.50;;;7.65;;
59607;SDS011;45426;44.726;10.390;2022-12-07T05:07:49;15.52;;;7.28;;
59607;SDS011;45426;44.726;10.390;2022-12-07T05:10:14;17.90;;;8.75;;
59607;SDS011;45426;44.726;10.390;2022-12-07T05:12:40;19.63;;;8.93;;
59607;SDS011;45426;44.726;10.390;2022-12-07T05:15:05;21.13;;;10.65;;
59607;SDS011;45426;44.726;10.390;2022-12-07T05:17:31;22.17;;;10.35;;
59607;SDS011;45426;44.726;10.390;2022-12-07T05:19:56;22.02;;;10.25;;
59607;SDS011;45426;44.726;10.390;2022-12-07T05:22:22;20.98;;;10.52;;
59607;SDS011;45426;44.726;10.390;2022-12-07T05:24:47;20.50;;;9.77;;
59607;SDS011;45426;44.726;10.390;2022-12-07T05:27:12;21.13;;;9.52;;
59607;SDS011;45426;44.726;10.390;2022-12-07T05:29:38;19.95;;;9.52;;
59607;SDS011;45426;44.726;10.390;2022-12-07T05:32:03;17.67;;;8.20;;
59607;SDS011;45426;44.726;10.390;2022-12-07T05:34:29;18.02;;;8.88;;
59607;SDS011;45426;44.726;10.390;2022-12-07T05:36:54;19.20;;;9.27;;
59607;SDS011;45426;44.726;10.390;2022-12-07T05:39:19;19.88;;;9.75;;
59607;SDS011;45426;44.726;10.390;2022-12-07T05:41:45;20.13;;;10.20;;
59607;SDS011;45426;44.726;10.390;2022-12-07T05:44:29;19.92;;;9.88;;
59607;SDS011;45426;44.726;10.390;2022-12-07T05:46:54;24.38;;;10.23;;
59607;SDS011;45426;44.726;10.390;2022-12-07T05:49:20;23.80;;;11.00;;
59607;SDS011;45426;44.726;10.390;2022-12-07T05:51:45;24.27;;;11.45;;
59607;SDS011;45426;44.726;10.390;2022-12-07T05:54:10;26.33;;;12.55;;
59607;SDS011;45426;44.726;10.390;2022-12-07T05:56:36;25.85;;;12.90;;
59607;SDS011;45426;44.726;10.390;2022-12-07T05:59:01;33.17;;;15.63;;
59607;SDS011;45426;44.726;10.390;2022-12-07T06:01:45;41.25;;;17.25;;
59607;SDS011;45426;44.726;10.390;2022-12-07T06:04:10;43.13;;;17.30;;
59607;SDS011;45426;44.726;10.390;2022-12-07T06:06:36;43.55;;;19.10;;
59607;SDS011;45426;44.726;10.390;2022-12-07T06:09:02;50.58;;;20.65;;
59607;SDS011;45426;44.726;10.390;2022-12-07T06:11:27;47.55;;;20.10;;
59607;SDS011;45426;44.726;10.390;2022-12-07T06:14:12;47.30;;;19.67;;
59607;SDS011;45426;44.726;10.390;2022-12-07T06:16:37;48.92;;;20.35;;
59607;SDS011;45426;44.726;10.390;2022-12-07T06:19:02;36.28;;;18.30;;
59607;SDS011;45426;44.726;10.390;2022-12-07T06:21:28;39.22;;;18.15;;
59607;SDS011;45426;44.726;10.390;2022-12-07T06:23:53;38.50;;;18.30;;
59607;SDS011;45426;44.726;10.390;2022-12-07T06:26:19;38.95;;;18.30;;
59607;SDS011;45426;44.726;10.390;2022-12-07T06:28:45;38.33;;;17.45;;
59607;SDS011;45426;44.726;10.390;2022-12-07T06:31:10;42.95;;;19.05;;
59607;SDS011;45426;44.726;10.390;2022-12-07T06:33:35;37.90;;;17.58;;
59607;SDS011;45426;44.726;10.390;2022-12-07T06:36:01;38.80;;;18.45;;
59607;SDS011;45426;44.726;10.390;2022-12-07T06:38:26;40.10;;;18.67;;
59607;SDS011;45426;44.726;10.390;2022-12-07T06:40:52;42.17;;;19.30;;
59607;SDS011;45426;44.726;10.390;2022-12-07T06:43:17;41.88;;;19.17;;
59607;SDS011;45426;44.726;10.390;2022-12-07T06:45:42;44.70;;;18.70;;
59607;SDS011;45426;44.726;10.390;2022-12-07T06:48:08;41.47;;;18.33;;
59607;SDS011;45426;44.726;10.390;2022-12-07T06:50:33;41.05;;;18.48;;
59607;SDS011;45426;44.726;10.390;2022-12-07T06:52:59;43.78;;;18.92;;
59607;SDS011;45426;44.726;10.390;2022-12-07T06:55:24;45.33;;;19.25;;
59607;SDS011;45426;44.726;10.390;2022-12-07T06:57:50;39.15;;;18.58;;
59607;SDS011;45426;44.726;10.390;2022-12-07T07:00:15;44.42;;;19.83;;
59607;SDS011;45426;44.726;10.390;2022-12-07T07:02:41;39.03;;;18.45;;
59607;SDS011;45426;44.726;10.390;2022-12-07T07:05:06;39.70;;;18.95;;
59607;SDS011;45426;44.726;10.390;2022-12-07T07:07:32;42.55;;;18.67;;
59607;SDS011;45426;44.726;10.390;2022-12-07T07:09:57;42.53;;;18.88;;
59607;SDS011;45426;44.726;10.390;2022-12-07T07:12:23;40.78;;;18.65;;
59607;SDS011;45426;44.726;10.390;2022-12-07T07:14:48;42.10;;;19.27;;
59607;SDS011;45426;44.726;10.390;2022-12-07T07:17:13;41.95;;;19.00;;
59607;SDS011;45426;44.726;10.390;2022-12-07T07:19:39;42.20;;;19.60;;
59607;SDS011;45426;44.726;10.390;2022-12-07T07:22:04;44.65;;;18.73;;
59607;SDS011;45426;44.726;10.390;2022-12-07T07:24:30;36.42;;;17.50;;
59607;SDS011;45426;44.726;10.390;2022-12-07T07:26:55;37.40;;;18.23;;
59607;SDS011;45426;44.726;10.390;2022-12-07T07:29:21;34.50;;;16.60;;
59607;SDS011;45426;44.726;10.390;2022-12-07T07:31:46;36.63;;;17.35;;
59607;SDS011;45426;44.726;10.390;2022-12-07T07:34:11;31.65;;;16.17;;
59607;SDS011;45426;44.726;10.390;2022-12-07T07:36:37;31.90;;;16.30;;
59607;SDS011;45426;44.726;10.390;2022-12-07T07:39:02;32.72;;;16.15;;
59607;SDS011;45426;44.726;10.390;2022-12-07T07:41:28;33.88;;;15.93;;
59607;SDS011;45426;44.726;10.390;2022-12-07T07:43:53;32.50;;;16.40;;
59607;SDS011;45426;44.726;10.390;2022-12-07T07:46:19;31.98;;;16.55;;
59607;SDS011;45426;44.726;10.390;2022-12-07T07:48:44;29.80;;;16.08;;
59607;SDS011;45426;44.726;10.390;2022-12-07T07:51:10;30.55;;;15.95;;
59607;SDS011;45426;44.726;10.390;2022-12-07T07:53:35;36.10;;;17.83;;
59607;SDS011;45426;44.726;10.390;2022-12-07T07:56:00;33.63;;;17.15;;
59607;SDS011;45426;44.726;10.390;2022-12-07T07:58:26;36.90;;;18.02;;
59607;SDS011;45426;44.726;10.390;2022-12-07T08:00:52;36.55;;;17.65;;
59607;SDS011;45426;44.726;10.390;2022-12-07T08:03:18;39.38;;;17.85;;
59607;SDS011;45426;44.726;10.390;2022-12-07T08:05:43;35.08;;;17.80;;
59607;SDS011;45426;44.726;10.390;2022-12-07T08:08:09;37.35;;;18.95;;
59607;SDS011;45426;44.726;10.390;2022-12-07T08:10:34;37.92;;;18.25;;
59607;SDS011;45426;44.726;10.390;2022-12-07T08:13:00;40.35;;;18.80;;
59607;SDS011;45426;44.726;10.390;2022-12-07T08:15:42;41.83;;;20.85;;
59607;SDS011;45426;44.726;10.390;2022-12-07T08:18:09;41.33;;;18.63;;
59607;SDS011;45426;44.726;10.390;2022-12-07T08:20:36;39.05;;;18.38;;
59607;SDS011;45426;44.726;10.390;2022-12-07T08:23:03;40.90;;;19.55;;
59607;SDS011;45426;44.726;10.390;2022-12-07T08:25:29;43.90;;;19.42;;
59607;SDS011;45426;44.726;10.390;2022-12-07T08:27:54;43.33;;;19.88;;
59607;SDS011;45426;44.726;10.390;2022-12-07T08:30:20;42.33;;;19.40;;
59607;SDS011;45426;44.726;10.390;2022-12-07T08:32:46;38.88;;;17.92;;
59607;SDS011;45426;44.726;10.390;2022-12-07T08:35:12;40.15;;;18.45;;
59607;SDS011;45426;44.726;10.390;2022-12-07T08:37:38;38.03;;;17.42;;
59607;SDS011;45426;44.726;10.390;2022-12-07T08:40:05;37.10;;;18.23;;
59607;SDS011;45426;44.726;10.390;2022-12-07T08:42:32;33.55;;;16.40;;
59607;SDS011;45426;44.726;10.390;2022-12-07T08:45:05;32.40;;;16.75;;
59607;SDS011;45426;44.726;10.390;2022-12-07T08:47:33;34.60;;;16.85;;
59607;SDS011;45426;44.726;10.390;2022-12-07T08:50:00;31.48;;;15.20;;
59607;SDS011;45426;44.726;10.390;2022-12-07T08:52:29;31.20;;;15.82;;
59607;SDS011;45426;44.726;10.390;2022-12-07T08:54:55;30.77;;;15.13;;
59607;SDS011;45426;44.726;10.390;2022-12-07T08:57:20;28.58;;;14.27;;
59607;SDS011;45426;44.726;10.390;2022-12-07T08:59:46;30.60;;;15.02;;
59607;SDS011;45426;44.726;10.390;2022-12-07T09:02:12;30.40;;;15.98;;
59607;SDS011;45426;44.726;10.390;2022-12-07T09:04:37;28.05;;;14.10;;
59607;SDS011;45426;44.726;10.390;2022-12-07T09:07:02;30.52;;;15.40;;
59607;SDS011;45426;44.726;10.390;2022-12-07T09:09:29;27.15;;;14.90;;
59607;SDS011;45426;44.726;10.390;2022-12-07T09:11:54;28.70;;;15.38;;
59607;SDS011;45426;44.726;10.390;2022-12-07T09:14:20;28.50;;;14.77;;
59607;SDS011;45426;44.726;10.390;2022-12-07T09:16:45;28.65;;;15.02;;
59607;SDS011;45426;44.726;10.390;2022-12-07T09:19:11;30.65;;;15.05;;
59607;SDS011;45426;44.726;10.390;2022-12-07T09:21:36;26.70;;;14.65;;
59607;SDS011;45426;44.726;10.390;2022-12-07T09:24:02;31.25;;;15.77;;
59607;SDS011;45426;44.726;10.390;2022-12-07T09:26:27;28.33;;;15.45;;
59607;SDS011;45426;44.726;10.390;2022-12-07T09:28:52;29.90;;;15.25;;
59607;SDS011;45426;44.726;10.390;2022-12-07T09:31:18;30.65;;;16.83;;
59607;SDS011;45426;44.726;10.390;2022-12-07T09:33:43;32.40;;;15.30;;
59607;SDS011;45426;44.726;10.390;2022-12-07T09:36:09;36.47;;;16.15;;
59607;SDS011;45426;44.726;10.390;2022-12-07T09:38:35;33.28;;;15.77;;
59607;SDS011;45426;44.726;10.390;2022-12-07T09:41:07;34.38;;;15.32;;
59607;SDS011;45426;44.726;10.390;2022-12-07T09:43:33;32.17;;;15.65;;
59607;SDS011;45426;44.726;10.390;2022-12-07T09:46:00;32.05;;;16.08;;
59607;SDS011;45426;44.726;10.390;2022-12-07T09:48:33;35.15;;;16.45;;
59607;SDS011;45426;44.726;10.390;2022-12-07T09:51:01;29.15;;;15.38;;
59607;SDS011;45426;44.726;10.390;2022-12-07T09:53:35;30.55;;;15.50;;
59607;SDS011;45426;44.726;10.390;2022-12-07T09:56:03;35.80;;;17.25;;
59607;SDS011;45426;44.726;10.390;2022-12-07T09:58:30;33.88;;;16.25;;
59607;SDS011;45426;44.726;10.390;2022-12-07T10:03:36;29.48;;;15.45;;
59607;SDS011;45426;44.726;10.390;2022-12-07T10:06:04;30.52;;;15.98;;
59607;SDS011;45426;44.726;10.390;2022-12-07T10:08:30;33.00;;;16.80;;
59607;SDS011;45426;44.726;10.390;2022-12-07T10:10:57;33.03;;;16.48;;
59607;SDS011;45426;44.726;10.390;2022-12-07T10:13:42;30.77;;;15.88;;
59607;SDS011;45426;44.726;10.390;2022-12-07T10:18:50;29.67;;;16.13;;
59607;SDS011;45426;44.726;10.390;2022-12-07T10:21:17;32.67;;;16.05;;
59607;SDS011;45426;44.726;10.390;2022-12-07T10:24:08;30.10;;;15.80;;
59607;SDS011;45426;44.726;10.390;2022-12-07T10:31:44;28.45;;;15.90;;
59607;SDS011;45426;44.726;10.390;2022-12-07T10:34:23;31.63;;;16.75;;
59607;SDS011;45426;44.726;10.390;2022-12-07T10:36:50;31.52;;;16.80;;
59607;SDS011;45426;44.726;10.390;2022-12-07T10:39:20;32.40;;;16.73;;
59607;SDS011;45426;44.726;10.390;2022-12-07T10:41:57;32.58;;;17.23;;
59607;SDS011;45426;44.726;10.390;2022-12-07T10:44:27;31.90;;;16.75;;
59607;SDS011;45426;44.726;10.390;2022-12-07T10:52:21;34.03;;;17.30;;
59607;SDS011;45426;44.726;10.390;2022-12-07T10:58:37;30.83;;;15.73;;
59607;SDS011;45426;44.726;10.390;2022-12-07T11:17:42;28.25;;;13.77;;
59607;SDS011;45426;44.726;10.390;2022-12-07T11:23:10;26.55;;;14.60;;
59607;SDS011;45426;44.726;10.390;2022-12-07T11:28:57;29.25;;;14.15;;
59607;SDS011;45426;44.726;10.390;2022-12-07T11:34:49;27.73;;;15.43;;
59607;SDS011;45426;44.726;10.390;2022-12-07T11:37:31;26.00;;;14.68;;
59607;SDS011;45426;44.726;10.390;2022-12-07T11:40:01;27.20;;;15.10;;
59607;SDS011;45426;44.726;10.390;2022-12-07T11:42:30;29.08;;;15.13;;
59607;SDS011;45426;44.726;10.390;2022-12-07T11:45:12;28.30;;;15.27;;
59607;SDS011;45426;44.726;10.390;2022-12-07T11:47:48;28.45;;;16.35;;
59607;SDS011;45426;44.726;10.390;2022-12-07T11:55:57;30.95;;;15.32;;
59607;SDS011;45426;44.726;10.390;2022-12-07T12:01:42;28.85;;;15.45;;
59607;SDS011;45426;44.726;10.390;2022-12-07T12:06:41;41.53;;;21.85;;
59607;SDS011;45426;44.726;10.390;2022-12-07T12:14:37;38.95;;;21.70;;
59607;SDS011;45426;44.726;10.390;2022-12-07T12:25:39;138.80;;;79.20;;
59607;SDS011;45426;44.726;10.390;2022-12-07T12:28:15;54.40;;;29.27;;
59607;SDS011;45426;44.726;10.390;2022-12-07T12:30:47;120.18;;;65.88;;
59607;SDS011;45426;44.726;10.390;2022-12-07T12:33:51;39.25;;;22.10;;
59607;SDS011;45426;44.726;10.390;2022-12-07T12:46:48;76.70;;;35.80;;
59607;SDS011;45426;44.726;10.390;2022-12-07T12:51:55;115.63;;;49.55;;
59607;SDS011;45426;44.726;10.390;2022-12-07T12:54:57;38.65;;;19.65;;
59607;SDS011;45426;44.726;10.390;2022-12-07T12:57:29;50.17;;;26.02;;
59607;SDS011;45426;44.726;10.390;2022-12-07T12:59:57;41.10;;;21.70;;
59607;SDS011;45426;44.726;10.390;2022-12-07T13:05:14;53.33;;;26.08;;
59607;SDS011;45426;44.726;10.390;2022-12-07T13:15:44;39.45;;;19.55;;
59607;SDS011;45426;44.726;10.390;2022-12-07T13:28:43;52.60;;;27.58;;
59607;SDS011;45426;44.726;10.390;2022-12-07T13:34:27;41.35;;;19.30;;
59607;SDS011;45426;44.726;10.390;2022-12-07T13:36:56;53.17;;;29.35;;
59607;SDS011;45426;44.726;10.390;2022-12-07T13:39:23;39.95;;;21.38;;
59607;SDS011;45426;44.726;10.390;2022-12-07T13:41:57;43.15;;;21.52;;
59607;SDS011;45426;44.726;10.390;2022-12-07T13:44:25;78.63;;;43.03;;
59607;SDS011;45426;44.726;10.390;2022-12-07T13:49:25;46.15;;;23.40;;
59607;SDS011;45426;44.726;10.390;2022-12-07T13:52:08;56.08;;;28.05;;
59607;SDS011;45426;44.726;10.390;2022-12-07T13:54:48;53.53;;;28.88;;
59607;SDS011;45426;44.726;10.390;2022-12-07T13:57:24;50.33;;;23.02;;
59607;SDS011;45426;44.726;10.390;2022-12-07T13:59:50;47.95;;;23.58;;
59607;SDS011;45426;44.726;10.390;2022-12-07T14:02:20;46.28;;;22.10;;
59607;SDS011;45426;44.726;10.390;2022-12-07T14:04:50;40.83;;;19.85;;
59607;SDS011;45426;44.726;10.390;2022-12-07T14:07:20;42.85;;;21.58;;
59607;SDS011;45426;44.726;10.390;2022-12-07T14:09:54;53.20;;;26.77;;
59607;SDS011;45426;44.726;10.390;2022-12-07T14:12:25;49.65;;;24.52;;
59607;SDS011;45426;44.726;10.390;2022-12-07T14:14:51;44.75;;;21.40;;
59607;SDS011;45426;44.726;10.390;2022-12-07T14:17:19;49.92;;;25.10;;
59607;SDS011;45426;44.726;10.390;2022-12-07T14:22:29;41.40;;;20.30;;
59607;SDS011;45426;44.726;10.390;2022-12-07T14:24:59;43.38;;;21.08;;
59607;SDS011;45426;44.726;10.390;2022-12-07T14:27:31;39.72;;;20.67;;
59607;SDS011;45426;44.726;10.390;2022-12-07T14:30:00;44.22;;;21.13;;
59607;SDS011;45426;44.726;10.390;2022-12-07T14:32:27;51.80;;;23.90;;
59607;SDS011;45426;44.726;10.390;2022-12-07T14:37:37;52.88;;;25.52;;
59607;SDS011;45426;44.726;10.390;2022-12-07T14:40:03;48.90;;;24.58;;
59607;SDS011;45426;44.726;10.390;2022-12-07T14:42:29;42.70;;;19.65;;
59607;SDS011;45426;44.726;10.390;2022-12-07T14:44:56;44.28;;;20.73;;
59607;SDS011;45426;44.726;10.390;2022-12-07T14:47:23;40.03;;;19.92;;
59607;SDS011;45426;44.726;10.390;2022-12-07T14:49:49;46.00;;;23.00;;
59607;SDS011;45426;44.726;10.390;2022-12-07T14:52:16;45.05;;;21.15;;
59607;SDS011;45426;44.726;10.390;2022-12-07T14:54:44;41.28;;;20.83;;
59607;SDS011;45426;44.726;10.390;2022-12-07T14:57:10;42.15;;;20.55;;
59607;SDS011;45426;44.726;10.390;2022-12-07T14:59:36;41.30;;;19.08;;
59607;SDS011;45426;44.726;10.390;2022-12-07T15:02:02;48.28;;;21.52;;
59607;SDS011;45426;44.726;10.390;2022-12-07T15:04:27;42.85;;;19.85;;
59607;SDS011;45426;44.726;10.390;2022-12-07T15:07:00;48.78;;;21.77;;
59607;SDS011;45426;44.726;10.390;2022-12-07T15:09:27;42.50;;;20.10;;
59607;SDS011;45426;44.726;10.390;2022-12-07T15:11:53;44.67;;;20.23;;
59607;SDS011;45426;44.726;10.390;2022-12-07T15:14:18;46.83;;;20.23;;
59607;SDS011;45426;44.726;10.390;2022-12-07T15:16:44;43.80;;;19.58;;
59607;SDS011;45426;44.726;10.390;2022-12-07T15:19:17;49.67;;;21.33;;
59607;SDS011;45426;44.726;10.390;2022-12-07T15:21:44;44.42;;;19.80;;
59607;SDS011;45426;44.726;10.390;2022-12-07T15:24:10;42.17;;;20.08;;
59607;SDS011;45426;44.726;10.390;2022-12-07T15:26:37;46.03;;;21.55;;
59607;SDS011;45426;44.726;10.390;2022-12-07T15:29:03;49.63;;;22.20;;
59607;SDS011;45426;44.726;10.390;2022-12-07T15:31:28;50.88;;;21.50;;
59607;SDS011;45426;44.726;10.390;2022-12-07T15:33:54;46.03;;;20.52;;
59607;SDS011;45426;44.726;10.390;2022-12-07T15:36:21;48.05;;;21.75;;
59607;SDS011;45426;44.726;10.390;2022-12-07T15:38:48;48.80;;;20.23;;
59607;SDS011;45426;44.726;10.390;2022-12-07T15:41:14;49.72;;;22.15;;
59607;SDS011;45426;44.726;10.390;2022-12-07T15:43:39;50.22;;;23.70;;
59607;SDS011;45426;44.726;10.390;2022-12-07T15:46:23;45.15;;;20.20;;
59607;SDS011;45426;44.726;10.390;2022-12-07T15:48:54;52.85;;;23.27;;
59607;SDS011;45426;44.726;10.390;2022-12-07T15:51:20;46.55;;;20.40;;
59607;SDS011;45426;44.726;10.390;2022-12-07T15:53:45;45.92;;;20.50;;
59607;SDS011;45426;44.726;10.390;2022-12-07T15:56:11;42.63;;;18.83;;
59607;SDS011;45426;44.726;10.390;2022-12-07T15:58:37;44.42;;;19.33;;
59607;SDS011;45426;44.726;10.390;2022-12-07T16:01:09;43.83;;;19.27;;
59607;SDS011;45426;44.726;10.390;2022-12-07T16:03:36;53.13;;;21.55;;
59607;SDS011;45426;44.726;10.390;2022-12-07T16:06:01;48.72;;;20.67;;
59607;SDS011;45426;44.726;10.390;2022-12-07T16:08:26;44.40;;;20.52;;
59607;SDS011;45426;44.726;10.390;2022-12-07T16:10:52;49.08;;;20.00;;
59607;SDS011;45426;44.726;10.390;2022-12-07T16:13:17;47.40;;;21.02;;
59607;SDS011;45426;44.726;10.390;2022-12-07T16:15:44;44.80;;;19.05;;
59607;SDS011;45426;44.726;10.390;2022-12-07T16:18:09;41.97;;;18.58;;
59607;SDS011;45426;44.726;10.390;2022-12-07T16:20:35;50.45;;;20.13;;
59607;SDS011;45426;44.726;10.390;2022-12-07T16:23:00;45.55;;;18.95;;
59607;SDS011;45426;44.726;10.390;2022-12-07T16:25:26;50.50;;;20.42;;
59607;SDS011;45426;44.726;10.390;2022-12-07T16:27:52;44.72;;;19.55;;
59607;SDS011;45426;44.726;10.390;2022-12-07T16:30:18;47.78;;;19.75;;
59607;SDS011;45426;44.726;10.390;2022-12-07T16:32:43;49.00;;;19.88;;
59607;SDS011;45426;44.726;10.390;2022-12-07T16:35:09;41.83;;;18.30;;
59607;SDS011;45426;44.726;10.390;2022-12-07T16:37:34;43.47;;;19.05;;
59607;SDS011;45426;44.726;10.390;2022-12-07T16:40:00;46.42;;;18.27;;
59607;SDS011;45426;44.726;10.390;2022-12-07T16:42:26;45.28;;;19.92;;
59607;SDS011;45426;44.726;10.390;2022-12-07T16:44:51;44.38;;;18.92;;
59607;SDS011;45426;44.726;10.390;2022-12-07T16:47:17;39.47;;;17.52;;
59607;SDS011;45426;44.726;10.390;2022-12-07T16:49:43;40.65;;;19.08;;
59607;SDS011;45426;44.726;10.390;2022-12-07T16:52:09;43.40;;;19.30;;